sensor_id;sensor_type;location;lat;lon;timestamp;P1;durP1;ratioP1;P2;durP2;ratioP2
5953;SDS011;3002;42.642;24.812;2023-03-23T00:00:52;17.33;;;5.93;;
5953;SDS011;3002;42.642;24.812;2023-03-23T00:03:19;10.97;;;4.23;;
5953;SDS011;3002;42.642;24.812;2023-03-23T00:05:46;19.93;;;6.30;;
5953;SDS011;3002;42.642;24.812;2023-03-23T00:08:19;14.20;;;5.47;;
5953;SDS011;3002;42.642;24.812;2023-03-23T00:10:49;15.40;;;5.37;;
5953;SDS011;3002;42.642;24.812;2023-03-23T00:13:28;13.83;;;5.33;;
5953;SDS011;3002;42.642;24.812;2023-03-23T00:15:54;17.43;;;6.23;;
5953;SDS011;3002;42.642;24.812;2023-03-23T00:18:22;16.87;;;6.00;;
5953;SDS011;3002;42.642;24.812;2023-03-23T00:20:51;17.30;;;5.50;;
5953;SDS011;3002;42.642;24.812;2023-03-23T00:23:22;23.70;;;5.77;;
5953;SDS011;3002;42.642;24.812;2023-03-23T00:25:51;16.47;;;5.57;;
5953;SDS011;3002;42.642;24.812;2023-03-23T00:28:18;21.23;;;6.70;;
5953;SDS011;3002;42.642;24.812;2023-03-23T00:31:03;16.57;;;5.63;;
5953;SDS011;3002;42.642;24.812;2023-03-23T00:33:32;13.93;;;6.70;;
5953;SDS011;3002;42.642;24.812;2023-03-23T00:36:03;15.07;;;4.37;;
5953;SDS011;3002;42.642;24.812;2023-03-23T00:38:30;13.27;;;4.60;;
5953;SDS011;3002;42.642;24.812;2023-03-23T00:40:56;14.10;;;4.93;;
5953;SDS011;3002;42.642;24.812;2023-03-23T00:43:22;13.57;;;5.23;;
5953;SDS011;3002;42.642;24.812;2023-03-23T00:45:54;12.00;;;4.50;;
5953;SDS011;3002;42.642;24.812;2023-03-23T00:48:20;19.00;;;5.50;;
5953;SDS011;3002;42.642;24.812;2023-03-23T00:50:47;21.17;;;6.00;;
5953;SDS011;3002;42.642;24.812;2023-03-23T00:53:13;13.10;;;4.90;;
5953;SDS011;3002;42.642;24.812;2023-03-23T00:55:43;20.53;;;5.57;;
5953;SDS011;3002;42.642;24.812;2023-03-23T00:58:10;18.80;;;6.83;;
5953;SDS011;3002;42.642;24.812;2023-03-23T01:00:36;17.53;;;4.67;;
5953;SDS011;3002;42.642;24.812;2023-03-23T01:03:01;13.60;;;5.43;;
5953;SDS011;3002;42.642;24.812;2023-03-23T01:05:27;15.13;;;5.43;;
5953;SDS011;3002;42.642;24.812;2023-03-23T01:07:57;21.00;;;6.17;;
5953;SDS011;3002;42.642;24.812;2023-03-23T01:10:23;20.73;;;6.43;;
5953;SDS011;3002;42.642;24.812;2023-03-23T01:12:49;15.83;;;6.30;;
5953;SDS011;3002;42.642;24.812;2023-03-23T01:15:16;16.03;;;5.00;;
5953;SDS011;3002;42.642;24.812;2023-03-23T01:17:43;15.83;;;5.83;;
5953;SDS011;3002;42.642;24.812;2023-03-23T01:20:10;18.90;;;5.53;;
5953;SDS011;3002;42.642;24.812;2023-03-23T01:22:38;21.03;;;7.13;;
5953;SDS011;3002;42.642;24.812;2023-03-23T01:25:05;16.53;;;6.87;;
5953;SDS011;3002;42.642;24.812;2023-03-23T01:27:31;15.90;;;5.30;;
5953;SDS011;3002;42.642;24.812;2023-03-23T01:29:57;17.80;;;5.60;;
5953;SDS011;3002;42.642;24.812;2023-03-23T01:32:22;13.63;;;5.20;;
5953;SDS011;3002;42.642;24.812;2023-03-23T01:34:48;10.87;;;5.00;;
5953;SDS011;3002;42.642;24.812;2023-03-23T01:37:13;16.50;;;5.80;;
5953;SDS011;3002;42.642;24.812;2023-03-23T01:39:40;18.73;;;5.97;;
5953;SDS011;3002;42.642;24.812;2023-03-23T01:42:08;15.10;;;6.43;;
5953;SDS011;3002;42.642;24.812;2023-03-23T01:47:00;18.37;;;5.23;;
5953;SDS011;3002;42.642;24.812;2023-03-23T01:49:27;17.07;;;5.67;;
5953;SDS011;3002;42.642;24.812;2023-03-23T01:51:57;29.07;;;10.60;;
5953;SDS011;3002;42.642;24.812;2023-03-23T01:54:26;19.07;;;7.70;;
5953;SDS011;3002;42.642;24.812;2023-03-23T01:56:54;26.17;;;8.30;;
5953;SDS011;3002;42.642;24.812;2023-03-23T01:59:25;19.73;;;5.90;;
5953;SDS011;3002;42.642;24.812;2023-03-23T02:01:53;15.77;;;5.93;;
5953;SDS011;3002;42.642;24.812;2023-03-23T02:04:20;11.77;;;4.80;;
5953;SDS011;3002;42.642;24.812;2023-03-23T02:06:50;29.07;;;8.30;;
5953;SDS011;3002;42.642;24.812;2023-03-23T02:09:17;12.80;;;6.07;;
5953;SDS011;3002;42.642;24.812;2023-03-23T02:11:43;18.93;;;6.17;;
5953;SDS011;3002;42.642;24.812;2023-03-23T02:14:10;19.73;;;5.37;;
5953;SDS011;3002;42.642;24.812;2023-03-23T02:35:50;12.87;;;5.57;;
5953;SDS011;3002;42.642;24.812;2023-03-23T02:38:25;18.47;;;7.33;;
5953;SDS011;3002;42.642;24.812;2023-03-23T02:40:58;25.83;;;6.83;;
5953;SDS011;3002;42.642;24.812;2023-03-23T02:43:28;18.77;;;8.23;;
5953;SDS011;3002;42.642;24.812;2023-03-23T02:45:58;19.67;;;6.97;;
5953;SDS011;3002;42.642;24.812;2023-03-23T02:48:27;15.43;;;7.53;;
5953;SDS011;3002;42.642;24.812;2023-03-23T02:50:55;17.40;;;9.67;;
5953;SDS011;3002;42.642;24.812;2023-03-23T02:53:23;22.87;;;7.33;;
5953;SDS011;3002;42.642;24.812;2023-03-23T02:55:51;20.53;;;8.37;;
5953;SDS011;3002;42.642;24.812;2023-03-23T02:58:20;16.67;;;6.03;;
5953;SDS011;3002;42.642;24.812;2023-03-23T03:00:48;16.23;;;6.00;;
5953;SDS011;3002;42.642;24.812;2023-03-23T03:03:19;27.00;;;7.10;;
5953;SDS011;3002;42.642;24.812;2023-03-23T03:08:52;22.80;;;7.13;;
5953;SDS011;3002;42.642;24.812;2023-03-23T03:11:31;18.37;;;8.07;;
5953;SDS011;3002;42.642;24.812;2023-03-23T03:14:08;21.00;;;8.30;;
5953;SDS011;3002;42.642;24.812;2023-03-23T03:17:02;24.93;;;8.17;;
5953;SDS011;3002;42.642;24.812;2023-03-23T03:19:37;22.60;;;9.50;;
5953;SDS011;3002;42.642;24.812;2023-03-23T03:22:06;25.13;;;8.67;;
5953;SDS011;3002;42.642;24.812;2023-03-23T03:24:33;20.87;;;8.17;;
5953;SDS011;3002;42.642;24.812;2023-03-23T03:27:02;44.53;;;9.53;;
5953;SDS011;3002;42.642;24.812;2023-03-23T03:29:34;28.83;;;7.67;;
5953;SDS011;3002;42.642;24.812;2023-03-23T03:32:03;18.20;;;6.03;;
5953;SDS011;3002;42.642;24.812;2023-03-23T03:34:33;22.87;;;8.63;;
5953;SDS011;3002;42.642;24.812;2023-03-23T03:36:59;15.60;;;6.00;;
5953;SDS011;3002;42.642;24.812;2023-03-23T03:39:25;18.23;;;8.10;;
5953;SDS011;3002;42.642;24.812;2023-03-23T03:41:51;17.00;;;6.27;;
5953;SDS011;3002;42.642;24.812;2023-03-23T03:44:16;25.47;;;6.37;;
5953;SDS011;3002;42.642;24.812;2023-03-23T03:46:42;29.53;;;7.27;;
5953;SDS011;3002;42.642;24.812;2023-03-23T03:49:08;15.60;;;5.20;;
5953;SDS011;3002;42.642;24.812;2023-03-23T03:51:39;13.03;;;5.67;;
5953;SDS011;3002;42.642;24.812;2023-03-23T03:54:05;26.47;;;8.83;;
5953;SDS011;3002;42.642;24.812;2023-03-23T03:56:31;21.23;;;7.70;;
5953;SDS011;3002;42.642;24.812;2023-03-23T03:59:00;22.43;;;6.80;;
5953;SDS011;3002;42.642;24.812;2023-03-23T04:01:25;18.43;;;7.13;;
5953;SDS011;3002;42.642;24.812;2023-03-23T04:03:51;23.00;;;8.97;;
5953;SDS011;3002;42.642;24.812;2023-03-23T04:06:17;21.00;;;7.97;;
5953;SDS011;3002;42.642;24.812;2023-03-23T04:08:43;25.00;;;11.60;;
5953;SDS011;3002;42.642;24.812;2023-03-23T04:11:10;24.40;;;9.53;;
5953;SDS011;3002;42.642;24.812;2023-03-23T04:13:42;26.53;;;7.87;;
5953;SDS011;3002;42.642;24.812;2023-03-23T04:16:07;26.27;;;7.23;;
5953;SDS011;3002;42.642;24.812;2023-03-23T04:18:34;19.87;;;7.47;;
5953;SDS011;3002;42.642;24.812;2023-03-23T04:21:00;18.80;;;9.10;;
5953;SDS011;3002;42.642;24.812;2023-03-23T04:23:28;22.57;;;8.63;;
5953;SDS011;3002;42.642;24.812;2023-03-23T04:25:55;25.83;;;8.57;;
5953;SDS011;3002;42.642;24.812;2023-03-23T04:28:22;25.20;;;11.70;;
5953;SDS011;3002;42.642;24.812;2023-03-23T04:30:52;20.07;;;8.43;;
5953;SDS011;3002;42.642;24.812;2023-03-23T04:33:19;32.40;;;8.77;;
5953;SDS011;3002;42.642;24.812;2023-03-23T04:35:46;20.00;;;10.27;;
5953;SDS011;3002;42.642;24.812;2023-03-23T04:38:13;35.47;;;9.60;;
5953;SDS011;3002;42.642;24.812;2023-03-23T04:40:41;19.77;;;7.27;;
5953;SDS011;3002;42.642;24.812;2023-03-23T04:43:08;22.50;;;8.50;;
5953;SDS011;3002;42.642;24.812;2023-03-23T04:45:37;21.10;;;7.40;;
5953;SDS011;3002;42.642;24.812;2023-03-23T04:48:07;25.90;;;9.17;;
5953;SDS011;3002;42.642;24.812;2023-03-23T04:50:33;18.00;;;6.67;;
5953;SDS011;3002;42.642;24.812;2023-03-23T04:53:00;20.33;;;7.43;;
5953;SDS011;3002;42.642;24.812;2023-03-23T04:55:32;21.40;;;7.83;;
5953;SDS011;3002;42.642;24.812;2023-03-23T04:58:03;24.10;;;7.67;;
5953;SDS011;3002;42.642;24.812;2023-03-23T05:00:29;23.97;;;9.47;;
5953;SDS011;3002;42.642;24.812;2023-03-23T05:02:55;18.80;;;7.27;;
5953;SDS011;3002;42.642;24.812;2023-03-23T05:05:21;30.37;;;8.77;;
5953;SDS011;3002;42.642;24.812;2023-03-23T05:07:48;27.00;;;8.30;;
5953;SDS011;3002;42.642;24.812;2023-03-23T05:10:14;36.23;;;8.60;;
5953;SDS011;3002;42.642;24.812;2023-03-23T05:12:40;23.17;;;8.63;;
5953;SDS011;3002;42.642;24.812;2023-03-23T05:15:07;16.90;;;6.73;;
5953;SDS011;3002;42.642;24.812;2023-03-23T05:17:34;22.57;;;8.87;;
5953;SDS011;3002;42.642;24.812;2023-03-23T05:20:00;26.73;;;8.40;;
5953;SDS011;3002;42.642;24.812;2023-03-23T05:22:27;26.87;;;8.57;;
5953;SDS011;3002;42.642;24.812;2023-03-23T05:24:53;22.83;;;6.53;;
5953;SDS011;3002;42.642;24.812;2023-03-23T05:27:18;24.50;;;6.97;;
5953;SDS011;3002;42.642;24.812;2023-03-23T05:29:45;32.03;;;9.40;;
5953;SDS011;3002;42.642;24.812;2023-03-23T05:32:14;23.97;;;8.90;;
5953;SDS011;3002;42.642;24.812;2023-03-23T05:34:41;19.90;;;9.10;;
5953;SDS011;3002;42.642;24.812;2023-03-23T05:37:08;28.13;;;8.57;;
5953;SDS011;3002;42.642;24.812;2023-03-23T05:39:34;29.40;;;11.70;;
5953;SDS011;3002;42.642;24.812;2023-03-23T05:42:01;17.73;;;7.40;;
5953;SDS011;3002;42.642;24.812;2023-03-23T05:44:27;23.53;;;8.10;;
5953;SDS011;3002;42.642;24.812;2023-03-23T05:46:52;21.80;;;9.40;;
5953;SDS011;3002;42.642;24.812;2023-03-23T05:49:18;25.33;;;7.97;;
5953;SDS011;3002;42.642;24.812;2023-03-23T05:51:44;28.03;;;9.80;;
5953;SDS011;3002;42.642;24.812;2023-03-23T05:54:11;21.27;;;7.63;;
5953;SDS011;3002;42.642;24.812;2023-03-23T05:56:38;24.67;;;7.07;;
5953;SDS011;3002;42.642;24.812;2023-03-23T05:59:03;19.73;;;7.80;;
5953;SDS011;3002;42.642;24.812;2023-03-23T06:01:29;23.77;;;11.10;;
5953;SDS011;3002;42.642;24.812;2023-03-23T06:03:55;35.73;;;10.77;;
5953;SDS011;3002;42.642;24.812;2023-03-23T06:06:25;37.03;;;12.57;;
5953;SDS011;3002;42.642;24.812;2023-03-23T06:08:53;39.47;;;10.07;;
5953;SDS011;3002;42.642;24.812;2023-03-23T06:11:19;33.40;;;11.90;;
5953;SDS011;3002;42.642;24.812;2023-03-23T06:13:44;23.90;;;10.40;;
5953;SDS011;3002;42.642;24.812;2023-03-23T06:16:10;38.87;;;11.00;;
5953;SDS011;3002;42.642;24.812;2023-03-23T06:18:36;27.53;;;9.67;;
5953;SDS011;3002;42.642;24.812;2023-03-23T06:21:02;24.67;;;9.73;;
5953;SDS011;3002;42.642;24.812;2023-03-23T06:23:29;28.73;;;9.30;;
5953;SDS011;3002;42.642;24.812;2023-03-23T06:25:55;26.97;;;10.80;;
5953;SDS011;3002;42.642;24.812;2023-03-23T06:31:14;23.80;;;8.80;;
5953;SDS011;3002;42.642;24.812;2023-03-23T06:33:39;27.90;;;10.07;;
5953;SDS011;3002;42.642;24.812;2023-03-23T06:36:06;24.40;;;10.90;;
5953;SDS011;3002;42.642;24.812;2023-03-23T06:38:31;32.23;;;11.53;;
5953;SDS011;3002;42.642;24.812;2023-03-23T06:40:57;24.33;;;9.53;;
5953;SDS011;3002;42.642;24.812;2023-03-23T06:43:23;26.83;;;8.57;;
5953;SDS011;3002;42.642;24.812;2023-03-23T06:45:49;29.60;;;8.03;;
5953;SDS011;3002;42.642;24.812;2023-03-23T06:48:15;26.23;;;9.40;;
5953;SDS011;3002;42.642;24.812;2023-03-23T06:50:44;25.03;;;8.13;;
5953;SDS011;3002;42.642;24.812;2023-03-23T06:53:10;29.77;;;10.37;;
5953;SDS011;3002;42.642;24.812;2023-03-23T06:55:36;27.70;;;9.80;;
5953;SDS011;3002;42.642;24.812;2023-03-23T06:58:03;33.03;;;12.80;;
5953;SDS011;3002;42.642;24.812;2023-03-23T07:00:30;31.03;;;10.93;;
5953;SDS011;3002;42.642;24.812;2023-03-23T07:02:56;43.00;;;11.07;;
5953;SDS011;3002;42.642;24.812;2023-03-23T07:05:22;23.40;;;9.90;;
5953;SDS011;3002;42.642;24.812;2023-03-23T07:07:47;27.10;;;12.23;;
5953;SDS011;3002;42.642;24.812;2023-03-23T07:10:13;25.80;;;10.63;;
5953;SDS011;3002;42.642;24.812;2023-03-23T07:12:38;23.23;;;7.07;;
5953;SDS011;3002;42.642;24.812;2023-03-23T07:15:07;19.20;;;6.80;;
5953;SDS011;3002;42.642;24.812;2023-03-23T07:17:35;16.70;;;6.90;;
5953;SDS011;3002;42.642;24.812;2023-03-23T07:20:02;15.07;;;6.33;;
5953;SDS011;3002;42.642;24.812;2023-03-23T07:22:28;20.60;;;6.57;;
5953;SDS011;3002;42.642;24.812;2023-03-23T07:24:53;17.63;;;5.73;;
5953;SDS011;3002;42.642;24.812;2023-03-23T07:27:19;16.83;;;6.33;;
5953;SDS011;3002;42.642;24.812;2023-03-23T07:29:44;21.43;;;8.50;;
5953;SDS011;3002;42.642;24.812;2023-03-23T07:32:10;12.83;;;5.27;;
5953;SDS011;3002;42.642;24.812;2023-03-23T07:34:37;22.80;;;6.73;;
5953;SDS011;3002;42.642;24.812;2023-03-23T07:37:03;16.70;;;4.70;;
5953;SDS011;3002;42.642;24.812;2023-03-23T07:39:29;15.90;;;4.97;;
5953;SDS011;3002;42.642;24.812;2023-03-23T07:41:54;16.90;;;5.80;;
5953;SDS011;3002;42.642;24.812;2023-03-23T07:44:20;13.10;;;4.60;;
5953;SDS011;3002;42.642;24.812;2023-03-23T07:46:45;12.43;;;5.10;;
5953;SDS011;3002;42.642;24.812;2023-03-23T07:49:12;17.87;;;5.57;;
5953;SDS011;3002;42.642;24.812;2023-03-23T07:51:37;17.80;;;6.73;;
5953;SDS011;3002;42.642;24.812;2023-03-23T07:54:04;15.80;;;5.87;;
5953;SDS011;3002;42.642;24.812;2023-03-23T07:56:32;31.07;;;11.37;;
5953;SDS011;3002;42.642;24.812;2023-03-23T07:59:00;20.37;;;6.73;;
5953;SDS011;3002;42.642;24.812;2023-03-23T08:01:27;19.20;;;6.33;;
5953;SDS011;3002;42.642;24.812;2023-03-23T08:03:53;19.77;;;5.40;;
5953;SDS011;3002;42.642;24.812;2023-03-23T08:06:21;13.30;;;4.23;;
5953;SDS011;3002;42.642;24.812;2023-03-23T08:08:48;12.20;;;4.53;;
5953;SDS011;3002;42.642;24.812;2023-03-23T08:11:14;16.23;;;4.63;;
5953;SDS011;3002;42.642;24.812;2023-03-23T08:13:41;13.23;;;4.77;;
5953;SDS011;3002;42.642;24.812;2023-03-23T08:16:07;13.73;;;4.13;;
5953;SDS011;3002;42.642;24.812;2023-03-23T08:18:34;17.30;;;6.53;;
5953;SDS011;3002;42.642;24.812;2023-03-23T08:21:02;14.03;;;4.40;;
5953;SDS011;3002;42.642;24.812;2023-03-23T08:23:34;14.67;;;5.07;;
5953;SDS011;3002;42.642;24.812;2023-03-23T08:26:01;25.70;;;4.87;;
5953;SDS011;3002;42.642;24.812;2023-03-23T08:28:28;15.43;;;4.40;;
5953;SDS011;3002;42.642;24.812;2023-03-23T08:30:53;14.30;;;4.93;;
5953;SDS011;3002;42.642;24.812;2023-03-23T08:33:19;13.57;;;4.00;;
5953;SDS011;3002;42.642;24.812;2023-03-23T08:35:53;14.40;;;3.63;;
5953;SDS011;3002;42.642;24.812;2023-03-23T08:38:19;11.20;;;3.90;;
5953;SDS011;3002;42.642;24.812;2023-03-23T08:40:46;14.07;;;4.23;;
5953;SDS011;3002;42.642;24.812;2023-03-23T08:43:12;12.13;;;4.43;;
5953;SDS011;3002;42.642;24.812;2023-03-23T08:45:41;13.87;;;4.50;;
5953;SDS011;3002;42.642;24.812;2023-03-23T08:48:07;15.80;;;4.17;;
5953;SDS011;3002;42.642;24.812;2023-03-23T08:50:34;10.03;;;3.40;;
5953;SDS011;3002;42.642;24.812;2023-03-23T08:53:00;10.67;;;3.13;;
5953;SDS011;3002;42.642;24.812;2023-03-23T08:55:26;13.43;;;3.60;;
5953;SDS011;3002;42.642;24.812;2023-03-23T08:57:51;13.23;;;4.00;;
5953;SDS011;3002;42.642;24.812;2023-03-23T09:00:18;15.00;;;4.00;;
5953;SDS011;3002;42.642;24.812;2023-03-23T09:02:48;12.60;;;3.90;;
5953;SDS011;3002;42.642;24.812;2023-03-23T09:05:16;11.50;;;3.07;;
5953;SDS011;3002;42.642;24.812;2023-03-23T09:07:45;24.47;;;6.50;;
5953;SDS011;3002;42.642;24.812;2023-03-23T09:10:12;12.97;;;3.47;;
5953;SDS011;3002;42.642;24.812;2023-03-23T09:12:40;21.60;;;9.40;;
5953;SDS011;3002;42.642;24.812;2023-03-23T09:15:09;15.30;;;4.53;;
5953;SDS011;3002;42.642;24.812;2023-03-23T09:17:37;14.03;;;3.00;;
5953;SDS011;3002;42.642;24.812;2023-03-23T09:20:05;10.00;;;3.30;;
5953;SDS011;3002;42.642;24.812;2023-03-23T09:22:37;10.97;;;2.70;;
5953;SDS011;3002;42.642;24.812;2023-03-23T09:25:04;9.70;;;3.00;;
5953;SDS011;3002;42.642;24.812;2023-03-23T09:27:31;12.80;;;3.23;;
5953;SDS011;3002;42.642;24.812;2023-03-23T09:29:56;10.57;;;2.57;;
5953;SDS011;3002;42.642;24.812;2023-03-23T09:32:22;14.27;;;3.30;;
5953;SDS011;3002;42.642;24.812;2023-03-23T09:34:48;11.07;;;3.53;;
5953;SDS011;3002;42.642;24.812;2023-03-23T09:37:14;12.83;;;3.80;;
5953;SDS011;3002;42.642;24.812;2023-03-23T09:39:39;11.27;;;3.43;;
5953;SDS011;3002;42.642;24.812;2023-03-23T09:42:51;14.53;;;3.77;;
5953;SDS011;3002;42.642;24.812;2023-03-23T09:45:02;11.60;;;3.20;;
5953;SDS011;3002;42.642;24.812;2023-03-23T09:48:06;14.50;;;3.40;;
5953;SDS011;3002;42.642;24.812;2023-03-23T09:50:34;12.20;;;2.93;;
5953;SDS011;3002;42.642;24.812;2023-03-23T09:55:40;11.27;;;3.20;;
5953;SDS011;3002;42.642;24.812;2023-03-23T09:58:12;13.40;;;3.23;;
5953;SDS011;3002;42.642;24.812;2023-03-23T10:03:21;8.73;;;2.60;;
5953;SDS011;3002;42.642;24.812;2023-03-23T10:05:52;19.40;;;4.27;;
5953;SDS011;3002;42.642;24.812;2023-03-23T10:08:19;8.50;;;2.50;;
5953;SDS011;3002;42.642;24.812;2023-03-23T10:16:18;10.27;;;3.07;;
5953;SDS011;3002;42.642;24.812;2023-03-23T10:21:19;12.37;;;2.50;;
5953;SDS011;3002;42.642;24.812;2023-03-23T10:29:43;10.23;;;3.20;;
5953;SDS011;3002;42.642;24.812;2023-03-23T10:32:17;17.80;;;4.07;;
5953;SDS011;3002;42.642;24.812;2023-03-23T10:34:49;11.37;;;2.87;;
5953;SDS011;3002;42.642;24.812;2023-03-23T10:37:21;19.03;;;4.17;;
5953;SDS011;3002;42.642;24.812;2023-03-23T10:39:52;12.10;;;3.97;;
5953;SDS011;3002;42.642;24.812;2023-03-23T10:42:29;22.03;;;6.63;;
5953;SDS011;3002;42.642;24.812;2023-03-23T10:44:58;12.30;;;3.77;;
5953;SDS011;3002;42.642;24.812;2023-03-23T10:47:26;15.27;;;3.93;;
5953;SDS011;3002;42.642;24.812;2023-03-23T10:49:57;16.27;;;4.30;;
5953;SDS011;3002;42.642;24.812;2023-03-23T10:52:30;16.23;;;3.77;;
5953;SDS011;3002;42.642;24.812;2023-03-23T10:57:59;10.33;;;3.07;;
5953;SDS011;3002;42.642;24.812;2023-03-23T11:00:29;13.23;;;3.60;;
5953;SDS011;3002;42.642;24.812;2023-03-23T11:08:12;12.73;;;3.50;;
5953;SDS011;3002;42.642;24.812;2023-03-23T11:10:41;19.83;;;4.50;;
5953;SDS011;3002;42.642;24.812;2023-03-23T11:13:14;12.37;;;3.73;;
5953;SDS011;3002;42.642;24.812;2023-03-23T11:15:41;13.93;;;3.57;;
5953;SDS011;3002;42.642;24.812;2023-03-23T11:18:10;13.37;;;3.67;;
5953;SDS011;3002;42.642;24.812;2023-03-23T11:21:12;14.10;;;3.40;;
5953;SDS011;3002;42.642;24.812;2023-03-23T11:23:40;12.00;;;2.87;;
5953;SDS011;3002;42.642;24.812;2023-03-23T11:26:26;11.33;;;2.43;;
5953;SDS011;3002;42.642;24.812;2023-03-23T11:28:57;11.67;;;3.13;;
5953;SDS011;3002;42.642;24.812;2023-03-23T11:31:38;11.00;;;2.90;;
5953;SDS011;3002;42.642;24.812;2023-03-23T11:34:10;17.47;;;4.50;;
5953;SDS011;3002;42.642;24.812;2023-03-23T11:36:51;9.80;;;2.20;;
5953;SDS011;3002;42.642;24.812;2023-03-23T11:39:24;13.03;;;2.77;;
5953;SDS011;3002;42.642;24.812;2023-03-23T11:42:25;12.53;;;2.63;;
5953;SDS011;3002;42.642;24.812;2023-03-23T11:48:19;9.23;;;2.47;;
5953;SDS011;3002;42.642;24.812;2023-03-23T11:51:08;20.83;;;3.80;;
5953;SDS011;3002;42.642;24.812;2023-03-23T11:58:48;17.17;;;3.47;;
5953;SDS011;3002;42.642;24.812;2023-03-23T12:07:25;17.57;;;3.60;;
5953;SDS011;3002;42.642;24.812;2023-03-23T12:12:40;13.70;;;2.70;;
5953;SDS011;3002;42.642;24.812;2023-03-23T12:17:55;14.80;;;2.70;;
5953;SDS011;3002;42.642;24.812;2023-03-23T12:34:24;16.27;;;3.17;;
5953;SDS011;3002;42.642;24.812;2023-03-23T12:37:34;12.60;;;2.80;;
5953;SDS011;3002;42.642;24.812;2023-03-23T12:42:58;13.93;;;3.57;;
5953;SDS011;3002;42.642;24.812;2023-03-23T12:48:15;10.67;;;2.93;;
5953;SDS011;3002;42.642;24.812;2023-03-23T12:53:40;23.37;;;4.67;;
5953;SDS011;3002;42.642;24.812;2023-03-23T12:58:48;11.90;;;2.70;;
5953;SDS011;3002;42.642;24.812;2023-03-23T13:01:37;11.30;;;2.50;;
5953;SDS011;3002;42.642;24.812;2023-03-23T13:04:11;9.57;;;2.33;;
5953;SDS011;3002;42.642;24.812;2023-03-23T13:06:45;16.53;;;2.70;;
5953;SDS011;3002;42.642;24.812;2023-03-23T13:09:26;10.60;;;3.00;;
5953;SDS011;3002;42.642;24.812;2023-03-23T13:11:54;8.33;;;2.17;;
5953;SDS011;3002;42.642;24.812;2023-03-23T13:17:14;10.10;;;2.27;;
5953;SDS011;3002;42.642;24.812;2023-03-23T13:23:05;18.07;;;4.30;;
5953;SDS011;3002;42.642;24.812;2023-03-23T13:28:22;21.10;;;4.80;;
5953;SDS011;3002;42.642;24.812;2023-03-23T13:31:03;17.40;;;3.80;;
5953;SDS011;3002;42.642;24.812;2023-03-23T13:33:38;9.70;;;2.67;;
5953;SDS011;3002;42.642;24.812;2023-03-23T13:36:10;13.97;;;2.80;;
5953;SDS011;3002;42.642;24.812;2023-03-23T13:38:38;12.57;;;2.93;;
5953;SDS011;3002;42.642;24.812;2023-03-23T13:41:11;10.77;;;2.60;;
5953;SDS011;3002;42.642;24.812;2023-03-23T13:43:39;11.27;;;3.63;;
5953;SDS011;3002;42.642;24.812;2023-03-23T13:46:11;13.27;;;3.13;;
5953;SDS011;3002;42.642;24.812;2023-03-23T13:48:44;10.27;;;2.90;;
5953;SDS011;3002;42.642;24.812;2023-03-23T13:51:33;11.23;;;2.80;;
5953;SDS011;3002;42.642;24.812;2023-03-23T13:56:59;11.47;;;3.43;;
5953;SDS011;3002;42.642;24.812;2023-03-23T14:01:55;10.40;;;2.70;;
5953;SDS011;3002;42.642;24.812;2023-03-23T14:04:41;9.63;;;2.60;;
5953;SDS011;3002;42.642;24.812;2023-03-23T14:07:11;9.00;;;2.40;;
5953;SDS011;3002;42.642;24.812;2023-03-23T14:09:38;17.00;;;5.10;;
5953;SDS011;3002;42.642;24.812;2023-03-23T14:14:42;12.63;;;4.80;;
5953;SDS011;3002;42.642;24.812;2023-03-23T14:17:21;12.63;;;3.93;;
5953;SDS011;3002;42.642;24.812;2023-03-23T14:19:54;12.13;;;3.47;;
5953;SDS011;3002;42.642;24.812;2023-03-23T14:22:26;11.67;;;3.53;;
5953;SDS011;3002;42.642;24.812;2023-03-23T14:25:10;14.33;;;4.10;;
5953;SDS011;3002;42.642;24.812;2023-03-23T14:27:38;11.20;;;3.87;;
5953;SDS011;3002;42.642;24.812;2023-03-23T14:30:08;10.00;;;2.83;;
5953;SDS011;3002;42.642;24.812;2023-03-23T14:32:38;12.40;;;3.40;;
5953;SDS011;3002;42.642;24.812;2023-03-23T14:35:13;10.63;;;2.60;;
5953;SDS011;3002;42.642;24.812;2023-03-23T14:37:47;12.07;;;3.13;;
5953;SDS011;3002;42.642;24.812;2023-03-23T14:40:14;11.20;;;3.03;;
5953;SDS011;3002;42.642;24.812;2023-03-23T14:42:41;11.80;;;4.10;;
5953;SDS011;3002;42.642;24.812;2023-03-23T14:45:11;10.43;;;2.77;;
5953;SDS011;3002;42.642;24.812;2023-03-23T14:47:40;11.37;;;2.70;;
5953;SDS011;3002;42.642;24.812;2023-03-23T14:52:57;9.53;;;2.80;;
5953;SDS011;3002;42.642;24.812;2023-03-23T14:55:24;9.90;;;2.27;;
5953;SDS011;3002;42.642;24.812;2023-03-23T14:57:53;17.97;;;3.73;;
5953;SDS011;3002;42.642;24.812;2023-03-23T15:00:24;9.27;;;3.50;;
5953;SDS011;3002;42.642;24.812;2023-03-23T15:02:57;7.93;;;2.30;;
5953;SDS011;3002;42.642;24.812;2023-03-23T15:05:32;7.03;;;2.33;;
5953;SDS011;3002;42.642;24.812;2023-03-23T15:08:05;9.00;;;2.03;;
5953;SDS011;3002;42.642;24.812;2023-03-23T15:10:37;12.53;;;3.00;;
5953;SDS011;3002;42.642;24.812;2023-03-23T15:13:02;10.70;;;2.40;;
5953;SDS011;3002;42.642;24.812;2023-03-23T15:15:29;7.23;;;2.40;;
5953;SDS011;3002;42.642;24.812;2023-03-23T15:17:57;9.43;;;2.70;;
5953;SDS011;3002;42.642;24.812;2023-03-23T15:20:28;9.23;;;2.63;;
5953;SDS011;3002;42.642;24.812;2023-03-23T15:23:14;6.77;;;2.43;;
5953;SDS011;3002;42.642;24.812;2023-03-23T15:25:49;9.97;;;2.83;;
5953;SDS011;3002;42.642;24.812;2023-03-23T15:28:17;12.87;;;3.60;;
5953;SDS011;3002;42.642;24.812;2023-03-23T15:30:49;11.13;;;3.60;;
5953;SDS011;3002;42.642;24.812;2023-03-23T15:33:17;7.30;;;2.10;;
5953;SDS011;3002;42.642;24.812;2023-03-23T15:35:46;9.40;;;2.60;;
5953;SDS011;3002;42.642;24.812;2023-03-23T15:38:20;8.87;;;2.60;;
5953;SDS011;3002;42.642;24.812;2023-03-23T15:40:52;9.60;;;3.20;;
5953;SDS011;3002;42.642;24.812;2023-03-23T15:43:35;6.13;;;1.93;;
5953;SDS011;3002;42.642;24.812;2023-03-23T15:51:22;41.13;;;21.80;;
5953;SDS011;3002;42.642;24.812;2023-03-23T15:53:50;19.57;;;8.30;;
5953;SDS011;3002;42.642;24.812;2023-03-23T15:56:17;16.73;;;9.43;;
5953;SDS011;3002;42.642;24.812;2023-03-23T15:58:43;11.57;;;5.20;;
5953;SDS011;3002;42.642;24.812;2023-03-23T16:01:13;10.20;;;3.20;;
5953;SDS011;3002;42.642;24.812;2023-03-23T16:03:58;8.37;;;2.53;;
5953;SDS011;3002;42.642;24.812;2023-03-23T16:06:25;9.30;;;3.17;;
5953;SDS011;3002;42.642;24.812;2023-03-23T16:08:55;12.30;;;4.20;;
5953;SDS011;3002;42.642;24.812;2023-03-23T16:11:21;12.20;;;3.17;;
5953;SDS011;3002;42.642;24.812;2023-03-23T16:13:48;12.00;;;3.73;;
5953;SDS011;3002;42.642;24.812;2023-03-23T16:16:15;20.07;;;5.40;;
5953;SDS011;3002;42.642;24.812;2023-03-23T16:18:43;13.93;;;4.20;;
5953;SDS011;3002;42.642;24.812;2023-03-23T16:21:08;12.40;;;3.70;;
5953;SDS011;3002;42.642;24.812;2023-03-23T16:23:34;12.27;;;4.80;;
5953;SDS011;3002;42.642;24.812;2023-03-23T16:26:00;15.83;;;6.90;;
5953;SDS011;3002;42.642;24.812;2023-03-23T16:28:26;10.70;;;3.77;;
5953;SDS011;3002;42.642;24.812;2023-03-23T16:30:51;12.93;;;4.67;;
5953;SDS011;3002;42.642;24.812;2023-03-23T16:33:17;12.17;;;4.43;;
5953;SDS011;3002;42.642;24.812;2023-03-23T16:35:43;14.60;;;5.60;;
5953;SDS011;3002;42.642;24.812;2023-03-23T16:38:12;20.70;;;7.70;;
5953;SDS011;3002;42.642;24.812;2023-03-23T16:40:42;16.00;;;5.70;;
5953;SDS011;3002;42.642;24.812;2023-03-23T16:43:12;16.53;;;5.30;;
5953;SDS011;3002;42.642;24.812;2023-03-23T16:45:38;12.63;;;5.07;;
5953;SDS011;3002;42.642;24.812;2023-03-23T16:48:06;14.47;;;5.03;;
5953;SDS011;3002;42.642;24.812;2023-03-23T16:50:32;67.27;;;6.70;;
5953;SDS011;3002;42.642;24.812;2023-03-23T16:52:58;13.77;;;4.53;;
5953;SDS011;3002;42.642;24.812;2023-03-23T16:55:28;16.40;;;7.47;;
5953;SDS011;3002;42.642;24.812;2023-03-23T16:57:57;15.80;;;6.77;;
5953;SDS011;3002;42.642;24.812;2023-03-23T17:00:23;16.27;;;6.73;;
5953;SDS011;3002;42.642;24.812;2023-03-23T17:02:51;14.60;;;6.37;;
5953;SDS011;3002;42.642;24.812;2023-03-23T17:05:20;12.07;;;4.70;;